Time;durP1;ratioP1;P1;durP2;ratioP2;P2;SDS_P1;SDS_P2;PMS_P1;PMS_P2;Temp;Humidity;BMP_temperature;BMP_pressure;BME280_temperature;BME280_humidity;BME280_pressure;Samples;Min_cycle;Max_cycle;Signal;HPM_P1;HPM_P2
2023/08/29 00:01:12;;;;;;;14.63;9.45;;;;;;;22.89;49.06;101423.78;5007601;28;20096;-37
2023/08/29 00:03:39;;;;;;;14.25;9.00;;;;;;;22.89;48.90;101422.94;5005659;28;20141;-37
2023/08/29 00:06:05;;;;;;;14.15;9.00;;;;;;;22.87;49.22;101425.84;5011067;28;20124;-37
2023/08/29 00:08:33;;;;;;;13.80;8.68;;;;;;;22.87;48.92;101424.97;5009674;28;20077;-37
2023/08/29 00:11:02;;;;;;;14.20;8.98;;;;;;;22.86;49.34;101420.56;5008886;28;20176;-38
2023/08/29 00:13:29;;;;;;;14.27;8.98;;;;;;;22.84;49.09;101415.34;5009279;28;20052;-37
2023/08/29 00:15:56;;;;;;;11.43;7.88;;;;;;;22.84;49.01;101414.50;5007464;28;20049;-37
2023/08/29 00:18:23;;;;;;;13.15;7.88;;;;;;;22.83;49.12;101412.81;5007565;28;20057;-37
2023/08/29 00:20:51;;;;;;;12.85;8.23;;;;;;;22.81;49.46;101413.00;5009955;28;20065;-37
2023/08/29 00:23:18;;;;;;;12.85;8.27;;;;;;;22.82;48.78;101413.81;5005176;28;20454;-37
2023/08/29 00:25:46;;;;;;;11.57;7.85;;;;;;;22.81;48.99;101409.44;5010116;28;20045;-37
2023/08/29 00:28:13;;;;;;;13.55;8.50;;;;;;;22.79;49.37;101404.19;5008712;28;20624;-37
2023/08/29 00:30:40;;;;;;;12.07;7.47;;;;;;;22.78;49.35;101399.81;5007269;28;20046;-37
2023/08/29 00:33:10;;;;;;;13.02;7.80;;;;;;;22.79;48.99;101395.25;5004555;28;20054;-38
2023/08/29 00:35:37;;;;;;;12.07;8.13;;;;;;;22.78;49.37;101396.25;5008493;28;20095;-37
2023/08/29 00:38:04;;;;;;;13.40;7.57;;;;;;;22.77;49.11;101389.19;5006753;28;20049;-37
2023/08/29 00:40:31;;;;;;;13.43;8.27;;;;;;;22.77;49.43;101391.88;5009357;28;20049;-37
2023/08/29 00:42:59;;;;;;;11.48;7.22;;;;;;;22.75;49.25;101399.31;5008042;28;20077;-37
2023/08/29 00:45:29;;;;;;;11.15;7.45;;;;;;;22.74;49.27;101395.75;5007871;28;20127;-37
2023/08/29 00:47:56;;;;;;;12.73;8.13;;;;;;;22.75;49.22;101399.31;5007199;28;20054;-37
2023/08/29 00:50:25;;;;;;;12.32;8.07;;;;;;;22.74;49.28;101400.31;5008442;28;20042;-37
2023/08/29 00:52:57;;;;;;;11.05;7.43;;;;;;;22.73;49.56;101399.47;5006397;28;20385;-37
2023/08/29 00:55:25;;;;;;;10.95;6.88;;;;;;;22.72;49.77;101389.69;5008484;28;20687;-37
2023/08/29 00:57:56;;;;;;;11.85;7.38;;;;;;;22.72;49.14;101399.66;5008472;28;20138;-37
2023/08/29 01:00:26;;;;;;;12.23;7.72;;;;;;;22.71;49.59;101395.25;5008846;28;20045;-37
2023/08/29 01:02:53;;;;;;;11.07;7.47;;;;;;;22.70;49.39;101391.72;5006944;28;20149;-37
2023/08/29 01:05:20;;;;;;;11.27;7.10;;;;;;;22.69;49.64;101390.03;5008654;28;20472;-37
2023/08/29 01:07:49;;;;;;;10.63;6.78;;;;;;;22.68;49.17;101391.06;5006477;28;20151;-37
2023/08/29 01:10:17;;;;;;;10.63;6.85;;;;;;;22.67;49.15;101374.00;5007770;28;20046;-37
2023/08/29 01:12:53;;;;;;;10.65;6.60;;;;;;;22.66;49.65;101377.69;5006652;28;20058;-37
2023/08/29 01:15:27;;;;;;;11.55;7.25;;;;;;;22.66;49.71;101375.00;5008781;28;20909;-37
2023/08/29 01:17:58;;;;;;;9.82;6.07;;;;;;;22.64;49.18;101366.22;5007596;28;20054;-37
2023/08/29 01:20:28;;;;;;;10.02;6.20;;;;;;;22.64;49.73;101363.53;5006751;28;20049;-37
2023/08/29 01:23:16;;;;;;;9.00;6.50;;;;;;;22.62;49.35;101368.25;5005688;28;20056;-37
2023/08/29 01:25:48;;;;;;;10.23;6.60;;;;;;;22.63;49.65;101366.38;5007200;28;20065;-37
2023/08/29 01:28:15;;;;;;;10.25;6.93;;;;;;;22.62;49.58;101359.31;5007650;28;20049;-37
2023/08/29 01:30:45;;;;;;;10.18;6.47;;;;;;;22.61;49.51;101358.47;5008970;28;20045;-37
2023/08/29 01:33:13;;;;;;;9.32;6.32;;;;;;;22.59;49.53;101360.50;5007083;28;20141;-38
2023/08/29 01:35:45;;;;;;;8.63;5.38;;;;;;;22.59;49.63;101371.31;5005498;28;20077;-37
2023/08/29 01:38:12;;;;;;;9.13;6.05;;;;;;;22.60;49.58;101369.44;5004912;28;20142;-37
2023/08/29 01:40:39;;;;;;;9.52;5.97;;;;;;;22.58;49.42;101369.59;5006696;28;20054;-37
2023/08/29 01:43:05;;;;;;;8.48;5.68;;;;;;;22.58;49.74;101368.75;5007100;28;20104;-37
2023/08/29 01:45:33;;;;;;;9.57;6.03;;;;;;;22.57;49.32;101381.44;5005481;28;20498;-37
2023/08/29 01:47:59;;;;;;;9.77;5.70;;;;;;;22.56;49.74;101382.47;5007938;28;20417;-37
2023/08/29 01:50:29;;;;;;;9.07;5.60;;;;;;;22.56;49.61;101378.91;5008129;28;20042;-37
2023/08/29 01:52:56;;;;;;;9.23;5.88;;;;;;;22.55;49.54;101380.78;5006343;28;20147;-37
2023/08/29 01:55:24;;;;;;;8.88;5.60;;;;;;;22.54;49.47;101375.53;5010555;28;20045;-37
2023/08/29 01:57:51;;;;;;;9.15;5.95;;;;;;;22.53;49.63;101381.94;5007383;28;20164;-37
2023/08/29 02:00:19;;;;;;;8.45;5.65;;;;;;;22.53;49.49;101385.50;5006780;28;20052;-37
2023/08/29 02:02:46;;;;;;;8.57;5.38;;;;;;;22.51;49.88;101387.50;5004775;28;20054;-37
2023/08/29 02:05:12;;;;;;;8.52;5.75;;;;;;;22.51;49.76;101374.00;5005825;28;20053;-37
2023/08/29 02:07:39;;;;;;;8.93;5.93;;;;;;;22.50;49.51;101376.88;5005733;28;20112;-37
2023/08/29 02:10:06;;;;;;;7.90;5.22;;;;;;;22.50;49.64;101379.59;5007093;28;20050;-37
2023/08/29 02:12:33;;;;;;;9.13;5.50;;;;;;;22.48;49.28;101374.34;5007318;28;20057;-37
2023/08/29 02:15:00;;;;;;;7.88;5.13;;;;;;;22.47;49.56;101366.41;5007006;28;20050;-37
2023/08/29 02:17:27;;;;;;;8.35;5.30;;;;;;;22.47;49.76;101369.09;5005786;28;20057;-37
2023/08/29 02:19:53;;;;;;;7.75;4.95;;;;;;;22.45;49.57;101369.28;5008105;28;20429;-37
2023/08/29 02:22:20;;;;;;;7.07;4.72;;;;;;;22.45;49.56;101374.69;5004318;28;20104;-37
2023/08/29 02:24:47;;;;;;;8.52;5.07;;;;;;;22.46;49.83;101378.22;5006988;28;20100;-37
2023/08/29 02:27:14;;;;;;;6.85;4.50;;;;;;;22.44;49.56;101378.41;5008203;28;20077;-37
2023/08/29 02:29:41;;;;;;;9.20;5.18;;;;;;;22.42;49.85;101381.25;5006491;28;20497;-37
2023/08/29 02:32:07;;;;;;;7.20;4.95;;;;;;;22.42;49.77;101381.25;5006779;28;20133;-37
2023/08/29 02:34:34;;;;;;;6.80;4.35;;;;;;;22.40;49.53;101377.91;5005586;28;20108;-37
2023/08/29 02:37:00;;;;;;;7.40;4.80;;;;;;;22.41;49.80;101381.44;5007005;28;20056;-37
2023/08/29 02:39:27;;;;;;;7.80;5.10;;;;;;;22.39;49.73;101384.34;5003626;28;20409;-37
2023/08/29 02:41:53;;;;;;;6.55;4.45;;;;;;;22.39;49.74;101386.16;5009415;28;20453;-38
2023/08/29 02:44:20;;;;;;;5.90;4.30;;;;;;;22.38;49.70;101379.06;5011025;28;20140;-37
2023/08/29 02:46:47;;;;;;;5.78;4.30;;;;;;;22.37;49.85;101372.84;5009824;28;20056;-37
2023/08/29 02:49:13;;;;;;;7.38;4.65;;;;;;;22.37;49.76;101380.94;5009360;28;20531;-37
2023/08/29 02:51:40;;;;;;;6.97;4.72;;;;;;;22.36;49.61;101387.38;5009358;28;20049;-37
2023/08/29 02:54:06;;;;;;;6.22;3.88;;;;;;;22.35;49.76;101390.22;5009802;28;20057;-37
2023/08/29 02:56:33;;;;;;;6.60;4.22;;;;;;;22.35;49.89;101395.63;5010009;28;20073;-37
2023/08/29 02:58:59;;;;;;;6.80;4.40;;;;;;;22.34;49.92;101394.78;5010644;28;20089;-37
2023/08/29 03:01:26;;;;;;;6.88;4.22;;;;;;;22.33;49.79;101397.66;5010986;28;20050;-37
2023/08/29 03:03:53;;;;;;;6.28;4.35;;;;;;;22.32;49.61;101388.72;5010674;28;20100;-37
2023/08/29 03:06:19;;;;;;;5.18;3.75;;;;;;;22.32;49.58;101390.56;5011706;28;20046;-37
2023/08/29 03:08:46;;;;;;;6.03;4.00;;;;;;;22.31;49.73;101399.66;5008634;28;20148;-37
2023/08/29 03:11:12;;;;;;;5.57;3.88;;;;;;;22.30;49.85;101400.69;5010184;28;20188;-37
2023/08/29 03:13:39;;;;;;;6.38;3.90;;;;;;;22.30;49.82;101397.97;5011116;28;20430;-37
2023/08/29 03:16:17;;;;;;;5.45;3.58;;;;;;;22.29;49.79;101401.72;5010849;28;20050;-37
2023/08/29 03:18:46;;;;;;;5.80;3.63;;;;;;;22.29;49.98;101399.84;5008131;28;20049;-37
2023/08/29 03:21:12;;;;;;;5.05;3.55;;;;;;;22.28;49.73;101389.22;5011860;28;20108;-37
2023/08/29 03:23:39;;;;;;;6.22;3.78;;;;;;;22.27;49.99;101398.31;5007602;28;20107;-37
2023/08/29 03:26:07;;;;;;;5.85;3.85;;;;;;;22.27;49.87;101396.47;5009164;28;20165;-37
2023/08/29 03:28:37;;;;;;;6.45;4.03;;;;;;;22.26;49.94;101402.03;5010760;28;20422;-37
2023/08/29 03:31:21;;;;;;;5.80;3.80;;;;;;;22.24;49.92;101402.22;5008341;28;20086;-37
2023/08/29 03:33:48;;;;;;;5.63;3.78;;;;;;;22.25;50.13;101408.44;5011634;28;20137;-37
2023/08/29 03:36:15;;;;;;;5.30;3.50;;;;;;;22.24;49.82;101407.63;5008147;28;20160;-37
2023/08/29 03:38:42;;;;;;;6.10;3.85;;;;;;;22.24;50.05;101412.19;5007050;28;20137;-37
2023/08/29 03:41:09;;;;;;;4.95;3.13;;;;;;;22.22;49.85;101408.78;5009406;28;20338;-37
2023/08/29 03:43:36;;;;;;;4.70;3.22;;;;;;;22.21;49.77;101416.03;5009511;28;20422;-37
2023/08/29 03:46:05;;;;;;;4.78;3.58;;;;;;;22.22;49.53;101423.13;5009075;28;20448;-37
2023/08/29 03:48:32;;;;;;;4.75;3.25;;;;;;;22.21;49.75;101423.31;5007531;28;20132;-37
2023/08/29 03:51:05;;;;;;;4.80;3.13;;;;;;;22.20;49.88;101417.06;5012115;28;20062;-37
2023/08/29 03:53:36;;;;;;;6.40;3.80;;;;;;;22.21;50.03;101409.81;5006971;28;20049;-37
2023/08/29 03:56:05;;;;;;;5.32;3.70;;;;;;;22.21;49.91;101409.81;5011961;28;20042;-37
2023/08/29 03:58:32;;;;;;;4.82;3.50;;;;;;;22.21;49.84;101418.75;5009309;28;20147;-37
2023/08/29 04:00:59;;;;;;;3.75;2.63;;;;;;;22.17;50.00;101410.13;5008428;28;20116;-37
2023/08/29 04:03:26;;;;;;;3.65;2.85;;;;;;;22.18;49.96;101413.66;5007496;28;20456;-37
2023/08/29 04:05:53;;;;;;;4.80;3.00;;;;;;;22.17;49.85;101412.00;5011299;28;20046;-37
2023/08/29 04:08:19;;;;;;;5.95;3.40;;;;;;;22.16;50.38;101400.34;5007826;28;20045;-37
2023/08/29 04:10:46;;;;;;;4.35;2.85;;;;;;;22.16;49.81;101408.44;5008014;28;20600;-37
2023/08/29 04:13:13;;;;;;;5.85;3.15;;;;;;;22.16;49.90;101402.22;5009969;28;20042;-37
2023/08/29 04:15:41;;;;;;;4.75;3.40;;;;;;;22.15;49.89;101400.50;5008628;28;20399;-37
2023/08/29 04:18:08;;;;;;;3.63;2.60;;;;;;;22.15;49.80;101398.66;5008471;28;20412;-37
2023/08/29 04:20:36;;;;;;;4.13;2.85;;;;;;;22.14;49.94;101390.72;5010031;28;20434;-37
2023/08/29 04:23:03;;;;;;;4.40;2.95;;;;;;;22.14;49.96;101388.84;5005507;28;20204;-37
2023/08/29 04:25:30;;;;;;;4.72;3.13;;;;;;;22.15;50.18;101392.41;5005663;28;20045;-37
2023/08/29 04:27:57;;;;;;;4.63;3.05;;;;;;;22.15;50.07;101384.28;5006120;28;20057;-37
2023/08/29 04:30:24;;;;;;;4.28;3.15;;;;;;;22.14;49.84;101378.06;5005147;28;20100;-37
2023/08/29 04:32:50;;;;;;;5.35;2.90;;;;;;;22.14;50.07;101377.22;5003881;28;20501;-37
2023/08/29 04:35:17;;;;;;;5.22;3.33;;;;;;;22.13;50.14;101365.56;5006352;28;20057;-37
2023/08/29 04:37:46;;;;;;;5.65;3.40;;;;;;;22.14;49.99;101363.72;5008895;28;20458;-37
2023/08/29 04:40:13;;;;;;;6.25;3.92;;;;;;;22.14;49.88;101367.25;5011324;28;20394;-37
2023/08/29 04:42:41;;;;;;;5.95;3.40;;;;;;;22.14;49.97;101366.41;5010477;28;20096;-37
2023/08/29 04:45:08;;;;;;;6.63;4.03;;;;;;;22.13;49.96;101364.75;5008430;28;20325;-37
2023/08/29 04:47:35;;;;;;;7.45;4.30;;;;;;;22.13;49.92;101359.34;5003748;28;20064;-37
2023/08/29 04:50:02;;;;;;;7.30;4.32;;;;;;;22.11;50.16;101354.09;5007086;28;20061;-37
2023/08/29 04:52:30;;;;;;;5.90;3.97;;;;;;;22.12;49.88;101357.63;5004215;28;20061;-37
2023/08/29 04:54:56;;;;;;;6.75;4.40;;;;;;;22.12;50.13;101358.47;5007100;28;20053;-37
2023/08/29 04:57:23;;;;;;;8.20;4.63;;;;;;;22.12;50.18;101355.75;5012834;28;20349;-37
2023/08/29 04:59:50;;;;;;;8.77;5.63;;;;;;;22.11;50.02;101346.00;5010863;28;20061;-37
2023/08/29 05:02:17;;;;;;;8.77;5.20;;;;;;;22.12;50.16;101346.81;5009571;28;20180;-37
2023/08/29 05:04:45;;;;;;;9.50;5.10;;;;;;;22.12;50.31;101338.72;5001061;28;20058;-37
2023/08/29 05:07:12;;;;;;;7.45;4.97;;;;;;;22.10;50.12;101338.88;5009644;28;20137;-37
2023/08/29 05:09:38;;;;;;;9.45;5.70;;;;;;;22.11;50.03;101332.50;5006537;28;20065;-37
2023/08/29 05:12:10;;;;;;;9.57;5.28;;;;;;;22.10;50.14;101332.63;5008780;28;20112;-37
2023/08/29 05:14:38;;;;;;;8.45;5.60;;;;;;;22.11;49.92;101324.38;5006662;28;20369;-36
2023/08/29 05:17:05;;;;;;;10.45;6.43;;;;;;;22.12;49.92;101325.22;5007526;28;20144;-37
2023/08/29 05:19:32;;;;;;;8.35;5.72;;;;;;;22.11;49.84;101321.69;5008794;28;20077;-37
2023/08/29 05:21:59;;;;;;;10.25;5.53;;;;;;;22.13;49.84;101326.94;5010334;28;20169;-37
2023/08/29 05:24:26;;;;;;;9.93;6.05;;;;;;;22.13;50.07;101327.78;5007771;28;20056;-37
2023/08/29 05:26:52;;;;;;;9.23;5.70;;;;;;;22.15;49.97;101330.28;5005651;28;20042;-37
2023/08/29 05:29:19;;;;;;;9.90;6.40;;;;;;;22.15;49.80;101327.59;5010888;28;20388;-37
2023/08/29 05:31:45;;;;;;;12.45;6.95;;;;;;;22.18;49.94;101319.16;5011026;28;20116;-36
2023/08/29 05:34:12;;;;;;;12.57;7.10;;;;;;;22.21;49.93;101321.53;5009207;28;20420;-37
2023/08/29 05:36:39;;;;;;;9.02;6.05;;;;;;;22.24;49.99;101331.16;5007123;28;20175;-37
2023/08/29 05:39:05;;;;;;;10.50;6.10;;;;;;;22.25;49.76;101328.28;5007197;28;20238;-37
2023/08/29 05:41:32;;;;;;;10.10;6.22;;;;;;;22.28;49.94;101319.84;5007688;28;20054;-37
2023/08/29 05:43:59;;;;;;;10.63;6.28;;;;;;;22.31;49.86;101324.91;5009952;28;20061;-37
2023/08/29 05:46:25;;;;;;;10.60;6.25;;;;;;;22.33;49.68;101327.44;5010127;28;20065;-37
2023/08/29 05:48:52;;;;;;;11.27;7.00;;;;;;;22.34;49.57;101329.13;5010969;28;20049;-37
2023/08/29 05:51:18;;;;;;;9.70;6.07;;;;;;;22.35;49.41;101330.78;5009423;28;20077;-37
2023/08/29 05:53:45;;;;;;;11.10;6.78;;;;;;;22.36;49.25;101333.34;5009018;28;20081;-37
2023/08/29 05:56:11;;;;;;;11.13;6.70;;;;;;;22.36;49.52;101330.66;5008583;28;20068;-37
2023/08/29 05:58:38;;;;;;;10.75;6.75;;;;;;;22.36;49.53;101337.91;5009826;28;20088;-37
2023/08/29 06:01:06;;;;;;;11.52;6.93;;;;;;;22.36;49.42;101329.81;5007162;28;20081;-36
2023/08/29 06:03:34;;;;;;;11.73;6.90;;;;;;;22.35;49.51;101328.09;5009048;28;20052;-37
2023/08/29 06:06:03;;;;;;;11.57;6.88;;;;;;;22.36;49.47;101337.91;5010166;28;20073;-37
2023/08/29 06:08:33;;;;;;;10.85;6.65;;;;;;;22.35;49.33;101336.19;5007449;28;20116;-37
2023/08/29 06:11:00;;;;;;;9.30;6.25;;;;;;;22.35;49.63;101336.19;5006159;28;20311;-37
2023/08/29 06:13:27;;;;;;;10.43;6.57;;;;;;;22.33;49.26;101332.84;5007521;28;20139;-37
2023/08/29 06:15:54;;;;;;;10.23;5.97;;;;;;;22.33;49.49;101339.09;5005614;28;20046;-37
2023/08/29 06:18:21;;;;;;;10.35;6.05;;;;;;;22.33;49.43;101338.25;5013209;28;20350;-36
2023/08/29 06:20:47;;;;;;;11.65;6.28;;;;;;;22.32;49.56;101337.41;5013280;28;20476;-37
2023/08/29 06:23:14;;;;;;;10.48;6.10;;;;;;;22.32;49.77;101333.84;5011807;28;20062;-37
2023/08/29 06:25:41;;;;;;;10.80;6.65;;;;;;;22.32;49.76;101340.09;5013339;28;20049;-37
2023/08/29 06:28:08;;;;;;;8.02;5.60;;;;;;;22.33;49.44;101340.94;5012013;28;20406;-37
2023/08/29 06:30:35;;;;;;;9.05;5.43;;;;;;;22.34;49.21;101342.63;5012180;28;20042;-36
2023/08/29 06:33:06;;;;;;;9.38;5.65;;;;;;;22.33;49.43;101340.94;5009996;28;20069;-37
2023/08/29 06:35:39;;;;;;;9.57;5.43;;;;;;;22.34;49.55;101345.31;5011976;28;20145;-36
2023/08/29 06:38:07;;;;;;;8.23;5.23;;;;;;;22.34;49.42;101338.06;5008246;28;20077;-36
2023/08/29 06:40:35;;;;;;;10.40;5.88;;;;;;;22.34;49.57;101340.75;5013942;28;20500;-36
2023/08/29 06:43:02;;;;;;;8.05;5.35;;;;;;;22.35;49.38;101347.00;5012339;28;20163;-37
2023/08/29 06:45:29;;;;;;;7.78;5.20;;;;;;;22.35;49.52;101347.88;5013527;28;20056;-36
2023/08/29 06:47:56;;;;;;;8.75;5.50;;;;;;;22.36;49.43;101340.59;5011999;28;20050;-37
2023/08/29 06:50:23;;;;;;;9.13;5.30;;;;;;;22.35;49.64;101341.59;5012700;28;20073;-36
2023/08/29 06:52:49;;;;;;;9.30;5.28;;;;;;;22.36;49.58;101343.31;5009843;28;20100;-37
2023/08/29 06:55:16;;;;;;;8.00;4.95;;;;;;;22.36;49.43;101344.16;5013230;28;20167;-36
2023/08/29 06:57:43;;;;;;;7.20;4.60;;;;;;;22.37;49.67;101345.81;5013400;28;20429;-37
2023/08/29 07:00:13;;;;;;;7.85;4.75;;;;;;;22.37;49.55;101340.44;5012775;28;20145;-36
2023/08/29 07:02:39;;;;;;;7.57;5.10;;;;;;;22.37;49.70;101342.28;5010136;28;20054;-37
2023/08/29 07:05:07;;;;;;;7.95;4.75;;;;;;;22.38;49.34;101334.00;5012340;28;20075;-37
2023/08/29 07:07:35;;;;;;;7.47;4.53;;;;;;;22.39;49.42;101342.94;5008711;28;20048;-36
2023/08/29 07:10:02;;;;;;;7.55;4.70;;;;;;;22.39;49.62;101337.53;5013088;28;20054;-36
2023/08/29 07:12:29;;;;;;;7.55;4.60;;;;;;;22.40;49.38;101333.84;5012008;28;20062;-37
2023/08/29 07:14:56;;;;;;;8.18;4.85;;;;;;;22.41;49.49;101327.44;5011704;28;20104;-36
2023/08/29 07:17:22;;;;;;;6.60;4.47;;;;;;;22.41;49.60;101328.25;5009823;28;20100;-36
2023/08/29 07:19:49;;;;;;;6.28;4.07;;;;;;;22.42;49.64;101337.22;5009031;28;20057;-37
2023/08/29 07:22:16;;;;;;;6.25;4.07;;;;;;;22.42;49.18;101332.66;5009277;28;20121;-37
2023/08/29 07:24:50;;;;;;;6.85;4.10;;;;;;;22.43;49.40;101336.19;5011434;28;20048;-37
2023/08/29 07:27:17;;;;;;;6.13;4.03;;;;;;;22.42;49.57;101338.03;5009006;28;20042;-36
2023/08/29 07:29:44;;;;;;;6.35;4.10;;;;;;;22.42;49.44;101334.50;5008380;28;20076;-37
2023/08/29 07:32:11;;;;;;;6.35;4.13;;;;;;;22.44;49.77;101331.66;5010413;28;20045;-37
2023/08/29 07:34:39;;;;;;;8.32;4.53;;;;;;;22.44;49.50;101321.69;5009964;28;20124;-37
2023/08/29 07:37:07;;;;;;;7.43;4.00;;;;;;;22.45;49.33;101326.06;5011664;28;20137;-36
2023/08/29 07:39:34;;;;;;;5.78;3.85;;;;;;;22.45;49.54;101323.38;5009594;28;20132;-36
2023/08/29 07:42:01;;;;;;;5.55;3.60;;;;;;;22.46;49.54;101322.34;5010302;28;20054;-36
2023/08/29 07:44:29;;;;;;;7.47;3.90;;;;;;;22.47;49.53;101324.03;5012459;28;20309;-37
2023/08/29 07:46:56;;;;;;;7.80;3.88;;;;;;;22.48;49.62;101320.34;5012834;28;20054;-37
2023/08/29 07:49:39;;;;;;;5.60;3.47;;;;;;;22.49;49.34;101327.41;5011058;28;20046;-37
2023/08/29 07:52:06;;;;;;;6.30;3.75;;;;;;;22.50;49.35;101329.09;5007267;28;20750;-37
2023/08/29 07:54:32;;;;;;;5.47;3.60;;;;;;;22.51;49.55;101324.53;5007924;28;20140;-36
2023/08/29 07:56:59;;;;;;;6.10;3.20;;;;;;;22.51;49.36;101325.38;5012937;28;20123;-37
2023/08/29 07:59:25;;;;;;;6.20;3.70;;;;;;;22.53;49.35;101327.91;5013565;28;20357;-36
2023/08/29 08:01:53;;;;;;;5.43;3.28;;;;;;;22.54;49.60;101324.19;5013567;28;20151;-36
2023/08/29 08:04:20;;;;;;;6.28;3.40;;;;;;;22.54;49.27;101329.59;5009072;28;20800;-36
2023/08/29 08:06:47;;;;;;;5.63;3.25;;;;;;;22.56;49.38;101330.28;5008974;28;20046;-36
2023/08/29 08:09:14;;;;;;;5.75;3.38;;;;;;;22.58;49.80;101333.63;5007957;28;20053;-36
2023/08/29 08:11:41;;;;;;;5.95;3.10;;;;;;;22.58;49.55;101330.94;5009851;28;20128;-36
2023/08/29 08:14:07;;;;;;;5.72;3.33;;;;;;;22.59;49.35;101328.09;5005972;28;20394;-36
2023/08/29 08:16:34;;;;;;;4.32;2.90;;;;;;;22.59;49.49;101333.50;5012098;28;20042;-36
2023/08/29 08:19:01;;;;;;;5.05;2.97;;;;;;;22.60;49.52;101329.75;5005654;28;20405;-36
2023/08/29 08:21:27;;;;;;;5.63;2.97;;;;;;;22.62;49.44;101332.28;5008621;28;20046;-36
2023/08/29 08:23:55;;;;;;;5.10;2.92;;;;;;;22.63;49.38;101333.97;5005125;28;20173;-36
2023/08/29 08:26:21;;;;;;;4.28;2.90;;;;;;;22.65;49.53;101335.47;5011475;28;20033;-36
2023/08/29 08:28:49;;;;;;;4.72;3.03;;;;;;;22.66;49.67;101334.47;5013096;28;20049;-36
2023/08/29 08:31:15;;;;;;;5.35;2.53;;;;;;;22.67;49.46;101317.25;5011150;28;20046;-36
2023/08/29 08:33:43;;;;;;;3.83;2.53;;;;;;;22.68;49.57;101323.50;5004673;28;20069;-36
2023/08/29 08:36:09;;;;;;;5.95;2.40;;;;;;;22.71;49.67;101319.59;5012603;28;20058;-36
2023/08/29 08:38:36;;;;;;;4.15;2.42;;;;;;;22.72;49.18;101324.00;5005749;28;20477;-36
2023/08/29 08:41:04;;;;;;;3.83;2.30;;;;;;;22.74;49.29;101316.53;5008728;28;20053;-36
2023/08/29 08:43:31;;;;;;;5.15;2.58;;;;;;;22.74;49.46;101314.69;5006105;28;20082;-36
2023/08/29 08:45:58;;;;;;;4.60;2.08;;;;;;;22.75;49.29;101315.53;5011430;28;20058;-36
2023/08/29 08:48:25;;;;;;;5.07;2.33;;;;;;;22.78;49.52;101317.88;5011389;28;20050;-36
2023/08/29 08:50:52;;;;;;;4.70;2.30;;;;;;;22.79;49.36;101317.69;5011867;28;20140;-36
2023/08/29 08:53:20;;;;;;;3.75;2.20;;;;;;;22.79;49.35;101306.88;5007987;28;20374;-36
2023/08/29 08:55:49;;;;;;;3.53;2.13;;;;;;;22.81;49.32;101306.72;5011208;28;20061;-36
2023/08/29 08:58:17;;;;;;;4.57;2.65;;;;;;;22.83;49.00;101302.81;5009940;28;20046;-36
2023/08/29 09:00:44;;;;;;;5.07;1.80;;;;;;;22.84;49.47;101304.53;5006677;28;20100;-36
2023/08/29 09:03:13;;;;;;;3.50;2.00;;;;;;;22.86;49.32;101305.19;5006813;28;20050;-36
2023/08/29 09:05:42;;;;;;;3.75;1.83;;;;;;;22.87;49.25;101304.19;5009470;28;20057;-36
2023/08/29 09:08:08;;;;;;;2.60;1.48;;;;;;;22.89;49.61;101304.00;5009833;28;20046;-36
2023/08/29 09:10:39;;;;;;;2.85;1.80;;;;;;;22.91;49.38;101315.50;5010761;28;20053;-36
2023/08/29 09:13:13;;;;;;;2.38;1.63;;;;;;;22.93;48.87;101310.78;5012783;28;20057;-36
2023/08/29 09:15:40;;;;;;;2.30;1.73;;;;;;;22.94;48.96;101312.47;5008864;28;20116;-36
2023/08/29 09:18:08;;;;;;;5.03;1.80;;;;;;;22.95;49.36;101307.88;5008919;28;20450;-36
2023/08/29 09:20:35;;;;;;;2.67;1.70;;;;;;;22.97;49.17;101309.41;5010624;28;20056;-36
2023/08/29 09:23:02;;;;;;;3.25;1.27;;;;;;;22.97;49.07;101314.81;5007233;28;20050;-36
2023/08/29 09:25:28;;;;;;;2.60;1.40;;;;;;;22.99;49.01;101306.53;5008347;28;20054;-36
2023/08/29 09:27:55;;;;;;;5.05;1.80;;;;;;;23.01;49.05;101310.75;5011061;28;20049;-36
2023/08/29 09:30:23;;;;;;;2.53;1.40;;;;;;;23.03;49.39;101302.44;5008695;28;20158;-36
2023/08/29 09:32:51;;;;;;;2.15;1.30;;;;;;;23.04;49.07;101309.56;5009441;28;20430;-36
2023/08/29 09:35:21;;;;;;;2.65;1.83;;;;;;;23.06;48.68;101305.66;5009706;28;20331;-36
2023/08/29 09:37:53;;;;;;;2.58;1.45;;;;;;;23.09;48.50;101308.00;5007491;28;20100;-36
2023/08/29 09:40:23;;;;;;;2.47;1.33;;;;;;;23.12;48.64;101302.25;5010543;28;20046;-36
2023/08/29 09:43:00;;;;;;;3.03;1.25;;;;;;;23.17;48.61;101295.47;5007121;28;20107;-36
2023/08/29 09:45:32;;;;;;;2.17;1.20;;;;;;;23.21;48.68;101300.34;5011128;28;20077;-36
2023/08/29 09:48:03;;;;;;;2.83;1.27;;;;;;;23.25;48.89;101292.72;5009092;28;20056;-36
2023/08/29 09:50:31;;;;;;;2.67;1.25;;;;;;;23.29;48.66;101297.59;5008711;28;20061;-36
2023/08/29 09:52:59;;;;;;;3.03;1.13;;;;;;;23.31;48.85;101300.94;5007099;28;20046;-36
2023/08/29 09:55:30;;;;;;;2.05;1.52;;;;;;;23.34;49.04;101300.59;5009729;28;20049;-36
2023/08/29 09:57:58;;;;;;;2.63;1.40;;;;;;;23.36;48.82;101298.59;5009280;28;20559;-36
2023/08/29 10:00:25;;;;;;;2.67;1.48;;;;;;;23.39;48.65;101292.78;5006645;28;20412;-37
2023/08/29 10:02:56;;;;;;;3.17;1.90;;;;;;;23.42;48.39;101282.66;5010829;28;20437;-36
2023/08/29 10:05:32;;;;;;;2.05;1.10;;;;;;;23.45;48.57;101285.00;5008841;28;20042;-37
2023/08/29 10:08:05;;;;;;;1.67;1.20;;;;;;;23.47;48.74;101288.34;5008345;28;20401;-37
2023/08/29 10:10:34;;;;;;;2.28;1.35;;;;;;;23.52;47.88;101288.69;5007898;28;20073;-37
2023/08/29 10:13:02;;;;;;;1.92;1.05;;;;;;;23.55;47.97;101285.59;5008219;28;20113;-37
2023/08/29 10:15:32;;;;;;;2.03;1.25;;;;;;;23.58;48.15;101285.25;5005413;28;20046;-37
2023/08/29 10:18:01;;;;;;;1.70;1.05;;;;;;;23.62;48.20;101286.56;5009396;28;20097;-37
2023/08/29 10:20:28;;;;;;;2.08;0.93;;;;;;;23.65;48.22;101275.38;5011060;28;20490;-37
2023/08/29 10:22:55;;;;;;;2.75;1.52;;;;;;;23.69;48.36;101270.50;5006415;28;20077;-37
2023/08/29 10:25:23;;;;;;;1.45;1.13;;;;;;;23.72;48.40;101265.56;5008511;28;20069;-37
2023/08/29 10:27:50;;;;;;;1.85;1.60;;;;;;;23.74;48.38;101263.50;5008955;28;20046;-37
2023/08/29 10:30:17;;;;;;;2.03;1.30;;;;;;;23.79;47.58;101257.53;5005072;28;20057;-37
2023/08/29 10:32:46;;;;;;;2.38;1.40;;;;;;;23.82;48.18;101260.72;5007451;28;20060;-37
2023/08/29 10:35:25;;;;;;;1.20;1.00;;;;;;;23.86;47.53;101261.22;5007632;28;20410;-37
2023/08/29 10:37:53;;;;;;;2.45;1.35;;;;;;;23.91;48.20;101263.38;5008226;28;20073;-36
2023/08/29 10:40:20;;;;;;;1.83;1.27;;;;;;;23.95;48.00;101257.41;5009048;28;20567;-37
2023/08/29 10:42:52;;;;;;;2.70;1.60;;;;;;;23.99;47.67;101250.59;5010391;28;20405;-37
2023/08/29 10:45:20;;;;;;;1.38;1.13;;;;;;;24.01;47.60;101251.25;5010799;28;20053;-37
2023/08/29 10:47:47;;;;;;;3.03;1.30;;;;;;;24.05;48.06;101257.16;5007450;28;20473;-37
2023/08/29 10:50:23;;;;;;;1.40;1.13;;;;;;;24.07;48.03;101253.22;5006220;28;20064;-37
2023/08/29 10:52:56;;;;;;;1.75;1.20;;;;;;;24.12;47.62;101253.53;5003462;28;20073;-37
2023/08/29 10:55:24;;;;;;;2.22;1.30;;;;;;;24.16;47.62;101255.84;5003440;28;20065;-37
2023/08/29 10:57:52;;;;;;;1.52;1.23;;;;;;;24.19;47.73;101256.31;5006565;28;20984;-37
2023/08/29 11:00:41;;;;;;;1.73;1.40;;;;;;;24.20;47.61;101254.47;5008128;28;20528;-37
2023/08/29 11:03:08;;;;;;;2.20;1.30;;;;;;;24.26;47.26;101251.03;5002183;28;20048;-37
2023/08/29 11:05:40;;;;;;;1.63;1.27;;;;;;;24.27;47.10;101250.00;5013545;28;20100;-37
2023/08/29 11:08:22;;;;;;;1.98;1.30;;;;;;;24.30;47.39;101242.34;5010654;28;20050;-37
2023/08/29 11:11:09;;;;;;;1.98;1.33;;;;;;;24.32;47.17;101242.13;5012289;28;20058;-37
2023/08/29 11:13:55;;;;;;;1.77;1.15;;;;;;;24.35;47.52;101239.06;5002225;28;20054;-37
2023/08/29 11:16:22;;;;;;;3.17;1.30;;;;;;;24.38;46.97;101238.75;5013628;28;20081;-37
2023/08/29 11:19:06;;;;;;;1.70;1.10;;;;;;;24.41;46.73;101232.94;5012826;28;20046;-37
2023/08/29 11:21:33;;;;;;;2.40;1.27;;;;;;;24.42;46.71;101231.91;5014101;28;20082;-37
2023/08/29 11:24:00;;;;;;;1.02;0.93;;;;;;;24.45;47.20;101234.25;5008993;28;20050;-37
2023/08/29 11:26:44;;;;;;;1.35;0.90;;;;;;;24.49;47.25;101227.44;5009869;28;20112;-37
2023/08/29 11:29:11;;;;;;;2.15;1.20;;;;;;;24.51;46.99;101228.06;5011528;28;20119;-37